Time;durP1;ratioP1;P1;durP2;ratioP2;P2;SDS_P1;SDS_P2;PMS_P1;PMS_P2;Temp;Humidity;BMP_temperature;BMP_pressure;BME280_temperature;BME280_humidity;BME280_pressure;Samples;Min_cycle;Max_cycle;Signal;HPM_P1;HPM_P2
2023/10/16 00:00:30;;;;;;;3.00;0.90;;;7.70;99.90;;;;;;6199619;23;20048;-82
2023/10/16 00:03:02;;;;;;;5.05;1.10;;;7.80;99.90;;;;;;6198944;23;20017;-82
2023/10/16 00:05:33;;;;;;;2.70;1.00;;;7.80;99.90;;;;;;6199014;23;20020;-81
2023/10/16 00:08:05;;;;;;;5.75;1.30;;;7.90;99.90;;;;;;6199005;23;20044;-81
2023/10/16 00:10:33;;;;;;;3.72;1.40;;;7.80;99.90;;;;;;6195628;23;20104;-82
2023/10/16 00:13:04;;;;;;;4.35;1.10;;;7.90;99.90;;;;;;6173500;23;20092;-82
2023/10/16 00:15:34;;;;;;;3.70;0.95;;;7.90;99.90;;;;;;6198665;23;20004;-81
2023/10/16 00:18:00;;;;;;;3.05;1.25;;;7.90;99.90;;;;;;6198517;23;20015;-82
2023/10/16 00:20:26;;;;;;;3.05;1.20;;;7.90;99.90;;;;;;6198941;23;20009;-82
2023/10/16 00:22:52;;;;;;;4.28;1.30;;;8.00;99.90;;;;;;6198537;23;20075;-81
2023/10/16 00:25:21;;;;;;;2.92;1.38;;;7.90;99.90;;;;;;6197064;23;20139;-82
2023/10/16 00:27:47;;;;;;;5.85;1.40;;;8.00;99.90;;;;;;6172813;23;20039;-81
2023/10/16 00:30:13;;;;;;;2.42;1.23;;;7.90;99.90;;;;;;6199064;23;20039;-81
2023/10/16 00:32:38;;;;;;;2.78;1.10;;;7.90;99.90;;;;;;6198165;23;20033;-82
2023/10/16 00:35:04;;;;;;;1.90;0.90;;;7.90;99.90;;;;;;6198723;23;20338;-81
2023/10/16 00:37:33;;;;;;;3.15;1.17;;;8.00;99.90;;;;;;6199065;23;20499;-81
2023/10/16 00:39:59;;;;;;;3.20;1.30;;;8.00;99.90;;;;;;6172277;23;20021;-81
2023/10/16 00:42:24;;;;;;;6.10;1.50;;;8.00;99.90;;;;;;6173254;23;20019;-81
2023/10/16 00:44:58;;;;;;;4.13;1.00;;;8.00;99.90;;;;;;6198637;23;20015;-82
2023/10/16 00:47:24;;;;;;;2.43;1.17;;;8.00;99.90;;;;;;6198329;23;20009;-81
2023/10/16 00:49:50;;;;;;;4.90;1.40;;;8.00;99.90;;;;;;6198495;23;20589;-82
2023/10/16 00:52:18;;;;;;;4.43;1.98;;;8.00;99.90;;;;;;6198628;23;20034;-81
2023/10/16 00:54:46;;;;;;;3.22;1.20;;;8.00;99.90;;;;;;6197541;23;20100;-81
2023/10/16 00:57:13;;;;;;;3.08;1.20;;;7.90;99.90;;;;;;6173214;23;20013;-82
2023/10/16 00:59:40;;;;;;;2.47;1.27;;;7.80;99.90;;;;;;6173349;23;20043;-81
2023/10/16 01:02:09;;;;;;;3.88;1.02;;;7.80;99.90;;;;;;6198435;23;20012;-81
2023/10/16 01:04:35;;;;;;;6.38;1.20;;;7.80;99.90;;;;;;6172629;23;20422;-82
2023/10/16 01:07:01;;;;;;;5.00;1.30;;;7.80;99.90;;;;;;6199219;23;20025;-81
2023/10/16 01:09:33;;;;;;;3.13;1.08;;;7.80;99.90;;;;;;6196659;23;20024;-81
2023/10/16 01:11:59;;;;;;;3.28;1.38;;;7.80;99.90;;;;;;6200014;23;20025;-81
2023/10/16 01:14:25;;;;;;;4.15;1.60;;;7.80;99.90;;;;;;6199522;23;20024;-82
2023/10/16 01:16:54;;;;;;;2.88;1.20;;;7.90;99.90;;;;;;6174921;23;20009;-81
2023/10/16 01:19:20;;;;;;;5.57;1.23;;;7.80;99.90;;;;;;6199547;23;20469;-82
2023/10/16 01:21:46;;;;;;;4.25;1.10;;;7.80;99.90;;;;;;6200344;23;20016;-81
2023/10/16 01:24:12;;;;;;;5.75;1.35;;;7.70;99.90;;;;;;6199453;23;20016;-82
2023/10/16 01:26:42;;;;;;;2.95;1.38;;;7.80;99.90;;;;;;6199262;23;20012;-82
2023/10/16 01:29:09;;;;;;;3.60;1.33;;;7.70;99.90;;;;;;6200469;23;20222;-82
2023/10/16 01:31:43;;;;;;;4.47;1.40;;;7.60;99.90;;;;;;6199731;23;20020;-82
2023/10/16 01:34:12;;;;;;;3.40;1.58;;;7.60;99.90;;;;;;6199578;23;20100;-82
2023/10/16 01:36:45;;;;;;;5.68;1.30;;;7.60;99.90;;;;;;6199331;23;20025;-81
2023/10/16 01:40:12;;;;;;;4.75;1.50;;;7.70;99.90;;;;;;6199423;23;20436;-81
2023/10/16 01:42:11;;;;;;;5.25;1.90;;;7.70;99.90;;;;;;6191084;23;20012;-81
2023/10/16 01:44:36;;;;;;;7.00;2.15;;;7.80;99.90;;;;;;6199640;23;20469;-81
2023/10/16 01:47:03;;;;;;;3.22;1.17;;;7.80;99.90;;;;;;6199830;23;20024;-81
2023/10/16 01:49:28;;;;;;;4.50;1.40;;;7.90;99.90;;;;;;6199551;23;20538;-81
2023/10/16 01:51:56;;;;;;;5.22;1.50;;;7.90;99.90;;;;;;6175349;23;20062;-82
2023/10/16 01:54:24;;;;;;;5.03;1.50;;;7.90;99.90;;;;;;6173790;23;20510;-82
2023/10/16 01:56:50;;;;;;;3.40;1.42;;;7.90;99.90;;;;;;6199436;23;20374;-82
2023/10/16 01:59:18;;;;;;;3.50;1.50;;;7.90;99.90;;;;;;6199767;23;20012;-82
2023/10/16 02:01:43;;;;;;;3.72;1.35;;;7.80;99.90;;;;;;6199599;23;20013;-82
2023/10/16 02:04:09;;;;;;;2.00;1.25;;;7.70;99.90;;;;;;6175246;23;20528;-82
2023/10/16 02:06:34;;;;;;;4.72;1.60;;;7.70;99.90;;;;;;6199671;23;20031;-82
2023/10/16 02:09:00;;;;;;;4.13;1.27;;;7.70;99.90;;;;;;6199225;23;20024;-82
2023/10/16 02:11:26;;;;;;;4.22;1.50;;;7.50;99.90;;;;;;6199659;23;20339;-82
2023/10/16 02:13:51;;;;;;;4.68;1.40;;;7.50;99.90;;;;;;6199262;23;20013;-82
2023/10/16 02:16:18;;;;;;;2.38;1.30;;;7.50;99.90;;;;;;6199863;23;20009;-82
2023/10/16 02:18:47;;;;;;;4.75;1.63;;;7.50;99.90;;;;;;6199880;23;20012;-82
2023/10/16 02:21:14;;;;;;;4.10;1.50;;;7.50;99.90;;;;;;6201124;23;20518;-82
2023/10/16 02:23:43;;;;;;;6.30;1.50;;;7.60;99.90;;;;;;6198820;23;20387;-82
2023/10/16 02:26:11;;;;;;;3.83;1.90;;;7.60;99.90;;;;;;6200246;23;20462;-82
2023/10/16 02:28:40;;;;;;;4.15;1.65;;;7.80;99.90;;;;;;6199090;23;20594;-82
2023/10/16 02:31:13;;;;;;;4.95;1.70;;;7.90;99.90;;;;;;6199779;23;20020;-82
2023/10/16 02:33:44;;;;;;;2.78;1.25;;;7.90;99.90;;;;;;6200246;23;20351;-81
2023/10/16 02:36:10;;;;;;;2.72;1.50;;;8.00;99.90;;;;;;6200132;23;20005;-82
2023/10/16 02:38:38;;;;;;;3.33;1.40;;;8.10;99.90;;;;;;6198521;23;20536;-82
2023/10/16 02:41:04;;;;;;;2.67;1.10;;;8.00;99.90;;;;;;6174414;23;20476;-82
2023/10/16 02:43:30;;;;;;;1.85;1.10;;;8.20;99.90;;;;;;6198985;23;20016;-82
2023/10/16 02:46:01;;;;;;;4.05;1.45;;;8.20;99.90;;;;;;6199340;23;20104;-82
2023/10/16 02:48:27;;;;;;;6.53;1.50;;;8.20;99.90;;;;;;6199459;23;20335;-82
2023/10/16 02:50:59;;;;;;;3.20;1.35;;;8.10;99.90;;;;;;6175014;23;20043;-82
2023/10/16 02:53:29;;;;;;;3.80;1.65;;;8.10;99.90;;;;;;6199206;23;20375;-82
2023/10/16 02:56:05;;;;;;;5.07;1.80;;;8.00;99.90;;;;;;6200101;23;20107;-82
2023/10/16 02:58:32;;;;;;;7.22;1.33;;;8.00;99.90;;;;;;6198695;23;20031;-82
2023/10/16 03:01:06;;;;;;;3.60;1.30;;;7.90;99.90;;;;;;6199466;23;20020;-82
2023/10/16 03:03:31;;;;;;;3.30;1.30;;;7.90;99.90;;;;;;6174228;23;20021;-82
2023/10/16 03:05:59;;;;;;;4.18;1.65;;;7.90;99.90;;;;;;6199835;23;20213;-82
2023/10/16 03:08:32;;;;;;;4.68;1.25;;;8.00;99.90;;;;;;6203665;23;20053;-82
2023/10/16 03:10:59;;;;;;;5.25;1.38;;;8.00;99.90;;;;;;6178904;23;20015;-82
2023/10/16 03:13:25;;;;;;;5.00;1.27;;;8.10;99.90;;;;;;6179152;23;20633;-82
2023/10/16 03:15:59;;;;;;;5.03;1.35;;;8.00;99.90;;;;;;6203631;23;20124;-81
2023/10/16 03:18:25;;;;;;;4.22;1.20;;;8.20;99.90;;;;;;6205051;23;20016;-82
2023/10/16 03:21:26;;;;;;;3.53;1.40;;;8.20;99.90;;;;;;6204255;23;20012;-82
2023/10/16 03:23:51;;;;;;;4.55;1.35;;;8.20;99.90;;;;;;6203244;23;20482;-82
2023/10/16 03:26:25;;;;;;;5.07;1.42;;;8.30;99.90;;;;;;6179028;23;20043;-83
2023/10/16 03:28:59;;;;;;;3.80;1.20;;;8.40;99.90;;;;;;6203270;23;20030;-82
2023/10/16 03:31:27;;;;;;;4.68;1.80;;;8.50;99.90;;;;;;6204037;23;20476;-82
2023/10/16 03:33:54;;;;;;;6.43;1.60;;;8.50;99.90;;;;;;6203501;23;20028;-82
2023/10/16 03:36:21;;;;;;;2.83;1.33;;;8.50;99.90;;;;;;6179906;23;20095;-82
2023/10/16 03:38:49;;;;;;;2.88;1.10;;;8.50;99.90;;;;;;6177649;23;20020;-83
2023/10/16 03:43:47;;;;;;;3.63;1.23;;;8.60;99.90;;;;;;6202869;23;20346;-83
2023/10/16 03:46:13;;;;;;;6.75;1.35;;;8.70;99.90;;;;;;6203637;23;20105;-82
2023/10/16 03:48:39;;;;;;;6.20;1.30;;;8.70;99.90;;;;;;6204280;23;20023;-82
2023/10/16 03:51:08;;;;;;;5.93;1.08;;;8.70;99.90;;;;;;6203713;23;20095;-82
2023/10/16 03:53:35;;;;;;;2.95;1.10;;;8.70;99.90;;;;;;6203058;23;20027;-82
2023/10/16 03:56:02;;;;;;;3.03;1.27;;;8.70;99.90;;;;;;6204271;23;20008;-82
2023/10/16 03:58:27;;;;;;;5.22;1.58;;;8.80;99.90;;;;;;6202789;23;20489;-82
2023/10/16 04:00:53;;;;;;;6.57;1.52;;;8.80;99.90;;;;;;6203591;23;20050;-82
2023/10/16 04:03:23;;;;;;;2.45;1.20;;;8.70;99.90;;;;;;6179145;23;20012;-82
2023/10/16 04:05:50;;;;;;;4.63;1.40;;;8.80;99.90;;;;;;6203950;23;20468;-82
2023/10/16 04:08:26;;;;;;;7.07;1.60;;;8.70;99.90;;;;;;6204046;23;20020;-82
2023/10/16 04:10:56;;;;;;;9.07;1.50;;;8.70;99.90;;;;;;6177714;23;20012;-82
2023/10/16 04:13:31;;;;;;;4.22;1.13;;;8.80;99.90;;;;;;6203343;23;20026;-81
2023/10/16 04:18:30;;;;;;;5.10;1.50;;;8.70;99.90;;;;;;6203844;23;20103;-82
2023/10/16 04:32:20;;;;;;;5.45;1.70;;;8.70;99.90;;;;;;6203245;23;20431;-82
2023/10/16 04:34:39;;;;;;;3.33;1.42;;;8.60;99.90;;;;;;6200286;23;20016;-82
2023/10/16 04:45:24;;;;;;;4.82;1.70;;;8.40;99.90;;;;;;6203924;23;20016;-82
2023/10/16 06:14:36;;;;;;;4.03;1.70;;;8.10;99.90;;;;;;6204582;23;20031;-81
2023/10/16 06:17:24;;;;;;;5.35;1.60;;;8.20;99.90;;;;;;6180372;23;20008;-81
2023/10/16 06:19:51;;;;;;;4.93;1.30;;;8.30;99.90;;;;;;6203950;23;20456;-81
2023/10/16 06:22:17;;;;;;;1.95;1.40;;;8.30;99.90;;;;;;6180053;23;20015;-82
2023/10/16 06:24:47;;;;;;;3.72;1.60;;;8.30;99.90;;;;;;6203974;23;20114;-81
2023/10/16 06:27:19;;;;;;;4.95;1.50;;;8.50;99.90;;;;;;6204345;23;20016;-82
2023/10/16 06:29:51;;;;;;;5.78;1.77;;;8.60;99.90;;;;;;6204762;23;20008;-81
2023/10/16 06:32:18;;;;;;;5.32;1.60;;;8.60;99.90;;;;;;6204515;23;20015;-82
2023/10/16 06:34:57;;;;;;;3.85;1.50;;;8.70;99.90;;;;;;6204376;23;20083;-82
2023/10/16 06:37:23;;;;;;;5.70;1.58;;;8.80;99.90;;;;;;6204792;23;20333;-82
2023/10/16 06:40:15;;;;;;;1.83;1.10;;;8.80;99.90;;;;;;6204541;23;20090;-82
2023/10/16 06:42:45;;;;;;;5.68;2.13;;;8.80;99.90;;;;;;6204294;23;20114;-82
2023/10/16 06:45:19;;;;;;;5.70;1.90;;;9.00;99.90;;;;;;6205807;23;20022;-81
2023/10/16 06:47:48;;;;;;;3.28;1.70;;;9.00;99.90;;;;;;6204690;23;20424;-82
2023/10/16 06:52:55;;;;;;;4.80;1.33;;;9.10;99.90;;;;;;6205077;23;20403;-81
2023/10/16 06:55:22;;;;;;;6.80;1.30;;;9.20;99.90;;;;;;6203623;23;20532;-82
2023/10/16 06:57:48;;;;;;;8.60;1.83;;;9.30;99.90;;;;;;6204912;23;20016;-82
2023/10/16 07:00:27;;;;;;;4.03;1.50;;;9.30;99.90;;;;;;6205278;23;20108;-82
2023/10/16 07:02:56;;;;;;;2.40;1.45;;;9.40;99.90;;;;;;6204581;23;20012;-82
2023/10/16 07:05:23;;;;;;;2.72;1.20;;;9.40;99.90;;;;;;6179876;23;20131;-82
2023/10/16 07:07:56;;;;;;;5.55;1.58;;;9.50;99.90;;;;;;6204574;23;20107;-82
2023/10/16 07:10:22;;;;;;;2.20;1.40;;;9.50;99.90;;;;;;6203712;23;20428;-81
2023/10/16 07:13:02;;;;;;;4.15;1.75;;;9.60;99.90;;;;;;6203750;23;20023;-82
2023/10/16 07:15:29;;;;;;;3.78;1.50;;;9.70;99.90;;;;;;6179739;23;20456;-82
2023/10/16 07:17:56;;;;;;;4.78;1.52;;;9.70;99.90;;;;;;6204701;23;20016;-82
2023/10/16 07:20:28;;;;;;;3.53;1.35;;;9.80;99.90;;;;;;6204817;23;20600;-82
2023/10/16 07:22:59;;;;;;;3.20;1.67;;;9.80;99.90;;;;;;6205182;23;20019;-82
2023/10/16 07:25:37;;;;;;;4.90;1.35;;;9.90;99.90;;;;;;6179114;23;20392;-82
2023/10/16 07:28:09;;;;;;;3.22;1.40;;;9.90;99.90;;;;;;6202931;23;20365;-82
2023/10/16 07:30:42;;;;;;;6.00;1.98;;;9.90;99.90;;;;;;6204693;23;20341;-81
2023/10/16 07:33:15;;;;;;;4.15;1.40;;;10.00;99.90;;;;;;6204353;23;20016;-82
2023/10/16 07:35:46;;;;;;;1.95;1.27;;;10.10;99.90;;;;;;6204252;23;20004;-82
2023/10/16 07:38:20;;;;;;;4.30;1.70;;;10.20;99.90;;;;;;6204510;23;20023;-82
2023/10/16 07:40:53;;;;;;;4.33;1.73;;;10.10;99.90;;;;;;6203785;23;20405;-82
2023/10/16 07:43:32;;;;;;;4.82;1.73;;;10.10;99.90;;;;;;6203841;23;20008;-82
2023/10/16 07:48:37;;;;;;;2.88;1.35;;;10.00;99.90;;;;;;6204120;23;20043;-82
2023/10/16 07:51:07;;;;;;;5.93;2.05;;;10.10;99.90;;;;;;6203753;23;20051;-82
2023/10/16 07:53:37;;;;;;;2.50;1.27;;;10.10;99.90;;;;;;6203094;23;20058;-82
2023/10/16 07:56:17;;;;;;;2.88;1.55;;;10.20;99.90;;;;;;6203502;23;20047;-81
2023/10/16 07:58:48;;;;;;;3.58;1.40;;;10.30;99.90;;;;;;6202353;23;20487;-82
2023/10/16 08:01:17;;;;;;;5.13;1.58;;;10.40;99.90;;;;;;6203822;23;20012;-82
2023/10/16 08:03:48;;;;;;;5.53;1.58;;;10.60;99.90;;;;;;6204196;23;20031;-82
2023/10/16 08:06:23;;;;;;;4.82;1.45;;;10.70;99.90;;;;;;6204718;23;20016;-82
2023/10/16 08:08:49;;;;;;;3.33;1.60;;;10.80;99.90;;;;;;6178823;23;20027;-82
2023/10/16 08:11:20;;;;;;;4.13;1.58;;;10.80;99.90;;;;;;6178878;23;20069;-82
2023/10/16 08:13:51;;;;;;;2.20;1.45;;;10.60;99.90;;;;;;6203430;23;20016;-82
2023/10/16 08:16:18;;;;;;;6.43;1.60;;;10.70;99.90;;;;;;6203827;23;20012;-82
2023/10/16 08:18:51;;;;;;;5.00;1.70;;;10.70;99.90;;;;;;6204636;23;20074;-81
2023/10/16 08:21:25;;;;;;;3.72;1.80;;;10.70;99.90;;;;;;6205396;23;20012;-82
2023/10/16 08:23:55;;;;;;;5.57;1.63;;;10.90;99.90;;;;;;6205731;23;20052;-82
2023/10/16 08:26:30;;;;;;;5.47;1.48;;;10.90;99.90;;;;;;6205247;23;20374;-82
2023/10/16 08:29:11;;;;;;;4.40;1.20;;;11.00;99.90;;;;;;6205118;23;20394;-82
2023/10/16 08:31:41;;;;;;;5.18;1.17;;;11.10;99.90;;;;;;6205375;23;20016;-83
2023/10/16 08:34:09;;;;;;;3.63;1.50;;;11.20;99.90;;;;;;6205606;23;20016;-83
2023/10/16 08:36:35;;;;;;;4.60;1.27;;;11.10;99.90;;;;;;6206251;23;20087;-83
2023/10/16 08:39:10;;;;;;;7.05;1.52;;;11.20;99.90;;;;;;6179523;23;20044;-82
2023/10/16 08:44:24;;;;;;;2.83;1.60;;;11.30;99.90;;;;;;6205082;23;20016;-82
2023/10/16 08:47:16;;;;;;;4.53;1.40;;;11.20;99.90;;;;;;6180155;23;20350;-82
2023/10/16 08:49:40;;;;;;;3.70;1.30;;;11.30;99.90;;;;;;6205704;23;20035;-83
2023/10/16 08:52:10;;;;;;;4.57;1.67;;;11.50;99.90;;;;;;6180679;23;20092;-83
2023/10/16 08:57:16;;;;;;;3.63;1.60;;;11.70;99.90;;;;;;6205718;23;20034;-83
2023/10/16 08:59:43;;;;;;;4.32;1.48;;;11.70;99.90;;;;;;6204805;23;20016;-82
2023/10/16 09:02:11;;;;;;;4.03;1.70;;;11.90;99.90;;;;;;6205264;23;20081;-83
2023/10/16 09:04:42;;;;;;;4.40;1.02;;;12.00;99.90;;;;;;6205715;23;20034;-83
2023/10/16 09:07:11;;;;;;;3.22;0.95;;;12.00;99.90;;;;;;6205522;23;20377;-83
2023/10/16 09:09:41;;;;;;;5.50;2.05;;;12.10;99.90;;;;;;6204569;23;20352;-83
2023/10/16 09:12:13;;;;;;;4.68;1.55;;;12.20;99.90;;;;;;6204936;23;20016;-83
2023/10/16 09:14:40;;;;;;;7.13;1.45;;;12.10;99.90;;;;;;6205278;23;20108;-83
2023/10/16 09:17:06;;;;;;;5.40;1.23;;;12.20;99.90;;;;;;6205343;23;20474;-83
2023/10/16 09:19:45;;;;;;;5.93;1.75;;;12.40;99.90;;;;;;6205059;23;20016;-83
2023/10/16 09:22:13;;;;;;;5.70;3.08;;;12.30;99.90;;;;;;6206085;23;20093;-83
2023/10/16 09:24:45;;;;;;;7.90;1.25;;;12.30;99.90;;;;;;6204547;23;20771;-82
2023/10/16 09:27:22;;;;;;;3.03;0.90;;;11.80;99.90;;;;;;6205561;23;20016;-83
2023/10/16 09:29:53;;;;;;;6.18;1.05;;;11.80;99.90;;;;;;6206355;23;20115;-83
2023/10/16 09:32:36;;;;;;;4.68;1.10;;;11.70;99.90;;;;;;6205851;23;20421;-82
2023/10/16 09:35:06;;;;;;;4.70;1.27;;;11.70;99.90;;;;;;6181044;23;20012;-83
2023/10/16 09:37:35;;;;;;;3.45;1.25;;;11.60;99.90;;;;;;6205691;23;20012;-83
2023/10/16 09:40:35;;;;;;;4.55;1.30;;;11.60;99.90;;;;;;6205740;23;20012;-83
2023/10/16 09:43:05;;;;;;;10.40;1.48;;;11.60;99.90;;;;;;6205439;23;20095;-83
2023/10/16 09:45:38;;;;;;;4.65;1.00;;;11.70;99.90;;;;;;6206287;23;20357;-83
2023/10/16 09:48:07;;;;;;;4.72;1.10;;;11.80;99.90;;;;;;6205127;23;20016;-83
2023/10/16 09:50:37;;;;;;;3.25;0.77;;;11.90;99.90;;;;;;6206395;23;20341;-83
2023/10/16 09:53:06;;;;;;;2.38;1.00;;;12.00;99.90;;;;;;6182061;23;20355;-83
2023/10/16 09:55:44;;;;;;;2.22;0.85;;;12.20;99.90;;;;;;6206099;23;20079;-83
2023/10/16 09:58:11;;;;;;;2.20;0.70;;;12.30;99.90;;;;;;6206224;23;20012;-83
2023/10/16 10:00:46;;;;;;;2.97;0.80;;;12.40;99.90;;;;;;6207828;23;20016;-83
2023/10/16 10:03:14;;;;;;;6.90;1.15;;;12.30;99.90;;;;;;6206164;23;20016;-83
2023/10/16 10:05:55;;;;;;;1.27;1.13;;;12.60;99.90;;;;;;6206878;23;20047;-83
2023/10/16 10:09:20;;;;;;;3.65;0.90;;;12.60;99.90;;;;;;6206289;23;20315;-83
2023/10/16 10:12:37;;;;;;;6.90;1.20;;;12.50;99.90;;;;;;6206373;23;20024;-83
2023/10/16 10:15:17;;;;;;;3.83;1.13;;;12.50;99.90;;;;;;6203375;23;20035;-83
2023/10/16 10:17:48;;;;;;;2.25;0.60;;;12.70;99.90;;;;;;6206547;23;20016;-83
2023/10/16 10:20:25;;;;;;;4.93;0.98;;;12.60;99.90;;;;;;6206699;23;20012;-83
2023/10/16 10:22:56;;;;;;;3.65;1.30;;;12.80;99.90;;;;;;6182173;23;20047;-83
2023/10/16 10:25:41;;;;;;;5.47;1.35;;;12.90;99.90;;;;;;6206155;23;20020;-83
2023/10/16 10:28:25;;;;;;;;;;;13.00;99.90;;;;;;6206692;23;20052;-82
2023/10/16 10:30:55;;;;;;;4.75;1.02;;;12.80;99.90;;;;;;6206664;23;19971;-83
2023/10/16 10:33:58;;;;;;;3.83;0.80;;;12.90;99.90;;;;;;6206504;23;20364;-83
2023/10/16 10:36:39;;;;;;;6.35;1.23;;;13.10;99.90;;;;;;6172668;23;20034;-83
2023/10/16 10:42:03;;;;;;;2.95;0.98;;;12.90;99.90;;;;;;6206648;23;20012;-82
2023/10/16 10:44:40;;;;;;;3.08;1.10;;;12.90;99.90;;;;;;6205676;23;20052;-82
2023/10/16 10:47:23;;;;;;;3.40;1.25;;;12.50;99.90;;;;;;6207070;23;20489;-82
2023/10/16 10:49:58;;;;;;;2.97;0.73;;;12.70;99.90;;;;;;6206229;23;20008;-82
2023/10/16 10:52:27;;;;;;;6.63;1.30;;;12.90;99.90;;;;;;6206780;23;20475;-82
2023/10/16 10:55:00;;;;;;;1.67;0.90;;;13.10;99.90;;;;;;6205118;23;20035;-82
2023/10/16 10:57:27;;;;;;;4.78;1.40;;;13.30;99.90;;;;;;6205414;23;20074;-82
2023/10/16 11:02:48;;;;;;;3.15;0.80;;;13.10;99.90;;;;;;6206558;23;20022;-82
2023/10/16 11:05:23;;;;;;;1.27;0.63;;;13.50;99.90;;;;;;6207241;23;20015;-82
2023/10/16 11:10:42;;;;;;;1.90;0.65;;;13.30;99.90;;;;;;6206727;23;20016;-82
2023/10/16 11:13:12;;;;;;;1.95;0.60;;;13.60;99.90;;;;;;6206192;23;20095;-82
2023/10/16 11:15:56;;;;;;;5.28;1.02;;;13.90;99.90;;;;;;6207669;23;20014;-82
2023/10/16 11:18:26;;;;;;;3.30;1.00;;;13.60;99.90;;;;;;6207304;23;20012;-82
2023/10/16 11:20:54;;;;;;;4.68;1.00;;;13.70;99.90;;;;;;6206030;23;20073;-82
2023/10/16 11:23:21;;;;;;;1.73;0.40;;;13.80;99.90;;;;;;6205910;23;20051;-82
2023/10/16 11:25:52;;;;;;;3.90;0.75;;;13.40;99.90;;;;;;6205011;23;20027;-83
2023/10/16 11:28:28;;;;;;;9.07;1.00;;;13.40;99.90;;;;;;6181737;23;20445;-83
2023/10/16 11:30:56;;;;;;;1.80;0.80;;;13.00;99.90;;;;;;6207255;23;20030;-82
2023/10/16 11:33:30;;;;;;;2.25;0.77;;;13.10;99.90;;;;;;6207544;23;20023;-82
2023/10/16 11:36:02;;;;;;;4.10;0.77;;;13.30;99.90;;;;;;6181482;23;20012;-82
2023/10/16 11:38:29;;;;;;;3.75;0.70;;;13.40;99.90;;;;;;6206611;23;20349;-82
2023/10/16 11:41:04;;;;;;;5.05;0.98;;;13.30;99.90;;;;;;6207016;23;20442;-82
2023/10/16 11:43:32;;;;;;;2.60;0.75;;;13.00;99.90;;;;;;6206144;23;20326;-82
2023/10/16 11:46:04;;;;;;;5.25;1.25;;;13.10;99.90;;;;;;6206905;23;20095;-82
2023/10/16 11:51:17;;;;;;;4.70;1.00;;;12.90;99.90;;;;;;6207109;23;20107;-82
2023/10/16 11:53:45;;;;;;;4.22;0.98;;;13.00;99.90;;;;;;6206778;23;20016;-82
2023/10/16 11:56:13;;;;;;;2.33;0.63;;;13.20;99.90;;;;;;6181817;23;20035;-81
2023/10/16 11:58:40;;;;;;;4.28;0.90;;;13.00;99.90;;;;;;6206515;23;20054;-82
2023/10/16 12:01:09;;;;;;;3.58;0.88;;;13.20;99.90;;;;;;6206983;23;20073;-82
2023/10/16 12:03:39;;;;;;;6.40;1.05;;;13.30;99.90;;;;;;6207499;23;20016;-83
2023/10/16 12:06:08;;;;;;;6.43;0.88;;;13.40;99.90;;;;;;6206794;23;20118;-82
2023/10/16 12:08:37;;;;;;;3.13;0.90;;;13.50;99.90;;;;;;6206380;23;20020;-82
2023/10/16 12:11:04;;;;;;;3.35;1.23;;;13.60;99.90;;;;;;6181769;23;20369;-82
2023/10/16 12:13:31;;;;;;;4.30;0.95;;;13.70;99.90;;;;;;6205895;23;20365;-83
2023/10/16 12:15:58;;;;;;;3.97;1.00;;;13.60;99.90;;;;;;6206723;23;20012;-82
2023/10/16 12:18:26;;;;;;;5.55;0.75;;;13.70;99.90;;;;;;6207001;23;20019;-82
2023/10/16 12:20:53;;;;;;;5.55;0.98;;;13.60;99.90;;;;;;6206471;23;20099;-82
2023/10/16 12:23:20;;;;;;;2.72;0.80;;;13.70;99.90;;;;;;6181863;23;20016;-82
2023/10/16 12:25:47;;;;;;;3.55;1.00;;;13.60;99.90;;;;;;6204963;23;20019;-82
2023/10/16 12:28:12;;;;;;;5.18;0.80;;;13.70;99.90;;;;;;6206045;23;20016;-82
2023/10/16 12:30:38;;;;;;;4.35;1.00;;;13.80;99.90;;;;;;6206858;23;20087;-82
2023/10/16 12:33:07;;;;;;;4.97;0.88;;;13.60;99.90;;;;;;6207180;23;20013;-82
2023/10/16 12:35:34;;;;;;;4.80;1.00;;;13.60;99.90;;;;;;6206193;23;20008;-82
2023/10/16 12:38:06;;;;;;;3.95;1.02;;;13.20;99.90;;;;;;6207448;23;20095;-82
2023/10/16 12:40:37;;;;;;;5.88;1.10;;;13.30;99.90;;;;;;6206071;23;20404;-82
2023/10/16 12:43:05;;;;;;;6.43;1.05;;;13.30;99.90;;;;;;6206555;23;20056;-82
2023/10/16 12:45:32;;;;;;;5.55;1.20;;;13.20;99.90;;;;;;6207190;23;20305;-82
2023/10/16 12:47:58;;;;;;;7.30;1.27;;;13.00;99.90;;;;;;6206475;23;20314;-83
2023/10/16 12:50:24;;;;;;;2.60;0.98;;;12.80;99.90;;;;;;6206527;23;20019;-83
2023/10/16 12:52:57;;;;;;;4.00;1.00;;;12.70;99.90;;;;;;6181791;23;20016;-83
2023/10/16 12:55:23;;;;;;;5.85;1.15;;;12.90;99.90;;;;;;6205331;23;20412;-83
2023/10/16 12:57:55;;;;;;;4.63;1.20;;;13.20;99.90;;;;;;6206316;23;20023;-82
2023/10/16 13:00:22;;;;;;;7.40;0.90;;;13.50;99.90;;;;;;6206987;23;20012;-83
2023/10/16 13:02:49;;;;;;;3.63;1.33;;;13.70;99.90;;;;;;6180522;23;20051;-83
2023/10/16 13:05:19;;;;;;;6.80;1.30;;;13.70;99.90;;;;;;6180475;23;20329;-83
2023/10/16 13:07:47;;;;;;;3.55;1.30;;;13.30;99.90;;;;;;6207015;23;20311;-83
2023/10/16 13:10:16;;;;;;;2.35;0.82;;;13.20;99.90;;;;;;6207686;23;20505;-83
2023/10/16 13:12:42;;;;;;;5.55;0.98;;;13.40;99.90;;;;;;6207829;23;20012;-83
2023/10/16 13:15:16;;;;;;;4.65;1.55;;;13.30;99.90;;;;;;6183382;23;20217;-83
2023/10/16 13:20:17;;;;;;;2.67;1.02;;;13.50;99.90;;;;;;6192858;23;20469;-83
2023/10/16 13:46:53;;;;;;;6.85;1.00;;;13.60;99.90;;;;;;6149150;23;20044;-87
2023/10/16 13:49:19;;;;;;;4.57;1.25;;;13.50;99.90;;;;;;6122975;23;20049;-83
2023/10/16 13:51:48;;;;;;;3.33;1.10;;;13.60;99.90;;;;;;6093189;23;20014;-82
2023/10/16 13:54:14;;;;;;;2.33;0.70;;;13.30;99.90;;;;;;6149412;23;20284;-82
2023/10/16 13:56:46;;;;;;;4.13;1.08;;;13.20;99.90;;;;;;6176976;23;20094;-82
2023/10/16 13:59:12;;;;;;;5.75;0.80;;;13.20;99.90;;;;;;6176835;23;20523;-82
2023/10/16 14:01:47;;;;;;;6.35;0.95;;;13.20;99.90;;;;;;6151187;23;20012;-83
2023/10/16 14:04:16;;;;;;;4.15;1.05;;;13.40;99.90;;;;;;6178385;23;20024;-82
2023/10/16 14:06:51;;;;;;;6.88;1.05;;;13.50;99.90;;;;;;6185133;23;20035;-82
2023/10/16 14:10:13;;;;;;;5.70;1.05;;;13.40;99.90;;;;;;6183713;23;20509;-84
2023/10/16 14:12:41;;;;;;;5.78;0.70;;;13.50;99.90;;;;;;6157383;23;20039;-83
2023/10/16 14:15:33;;;;;;;1.77;0.70;;;13.70;99.90;;;;;;6180666;23;20024;-87
2023/10/16 14:18:02;;;;;;;3.25;0.52;;;13.50;99.90;;;;;;6156284;23;20308;-82
2023/10/16 14:20:45;;;;;;;4.50;0.90;;;13.60;99.90;;;;;;6181961;23;20095;-83
2023/10/16 14:23:28;;;;;;;5.80;0.63;;;13.50;99.90;;;;;;6154689;23;20099;-82
2023/10/16 14:26:00;;;;;;;4.40;0.77;;;13.40;99.90;;;;;;6176431;23;20012;-82
2023/10/16 14:28:32;;;;;;;7.50;0.80;;;13.10;99.90;;;;;;6175871;23;20100;-82
2023/10/16 14:31:03;;;;;;;3.58;0.50;;;13.20;99.90;;;;;;6176300;23;20020;-82
2023/10/16 14:33:31;;;;;;;2.05;0.73;;;13.20;99.90;;;;;;6177383;23;20318;-82
2023/10/16 14:35:57;;;;;;;4.60;0.75;;;13.30;99.90;;;;;;6176250;23;20019;-82
2023/10/16 14:38:27;;;;;;;4.35;0.77;;;13.20;99.90;;;;;;6177061;23;20028;-82
2023/10/16 14:41:08;;;;;;;3.60;1.10;;;13.20;99.90;;;;;;6176947;23;20055;-82
2023/10/16 14:43:35;;;;;;;2.60;0.45;;;13.20;99.90;;;;;;6175139;23;20028;-82
2023/10/16 14:46:07;;;;;;;3.95;0.70;;;12.90;99.90;;;;;;6177151;23;20453;-82
2023/10/16 14:48:34;;;;;;;0.95;0.50;;;12.80;99.90;;;;;;6178035;23;20349;-82
2023/10/16 14:51:00;;;;;;;2.42;1.02;;;12.90;99.90;;;;;;6176908;23;20269;-82
2023/10/16 14:53:28;;;;;;;2.55;0.77;;;12.90;99.90;;;;;;6177107;23;20096;-82
2023/10/16 14:55:54;;;;;;;1.48;0.63;;;12.80;99.90;;;;;;6151899;23;20017;-82
2023/10/16 14:58:20;;;;;;;1.00;0.50;;;12.90;99.90;;;;;;6176733;23;20044;-82
2023/10/16 15:00:50;;;;;;;3.63;0.50;;;12.80;99.90;;;;;;6177412;23;20035;-82
2023/10/16 15:03:16;;;;;;;3.08;0.55;;;12.70;99.90;;;;;;6177482;23;20016;-82
2023/10/16 15:05:43;;;;;;;1.98;0.50;;;12.70;99.90;;;;;;6177197;23;20354;-82
2023/10/16 15:08:12;;;;;;;2.70;0.47;;;12.70;99.90;;;;;;6177416;23;20020;-82
2023/10/16 15:10:47;;;;;;;3.72;0.47;;;12.60;99.90;;;;;;6176154;23;20020;-82
2023/10/16 15:13:17;;;;;;;0.88;0.40;;;12.80;99.90;;;;;;6177080;23;20376;-82
2023/10/16 15:15:45;;;;;;;4.30;0.60;;;12.80;99.90;;;;;;6177523;23;20021;-82
2023/10/16 15:18:13;;;;;;;3.60;0.70;;;12.80;99.90;;;;;;6176998;23;20099;-82
2023/10/16 15:20:40;;;;;;;1.85;0.60;;;12.60;99.90;;;;;;6150405;23;20446;-82
2023/10/16 15:23:11;;;;;;;2.75;0.52;;;12.50;99.90;;;;;;6147395;23;20024;-82
2023/10/16 15:25:38;;;;;;;2.10;0.77;;;12.50;99.90;;;;;;6147043;23;20016;-82
2023/10/16 15:28:06;;;;;;;2.50;0.85;;;12.40;99.90;;;;;;6121852;23;20458;-82
2023/10/16 15:30:33;;;;;;;2.50;0.55;;;12.40;99.90;;;;;;6147158;23;20017;-82
2023/10/16 15:33:00;;;;;;;5.47;0.80;;;12.30;99.90;;;;;;6124116;23;20350;-82
2023/10/16 15:35:28;;;;;;;5.00;0.73;;;12.30;99.90;;;;;;6123309;23;20442;-82
2023/10/16 15:37:55;;;;;;;1.42;0.63;;;12.10;99.90;;;;;;6147501;23;20013;-82
2023/10/16 15:40:22;;;;;;;2.88;0.70;;;12.00;99.90;;;;;;6122028;23;20009;-82
2023/10/16 15:42:52;;;;;;;3.35;1.05;;;11.90;99.90;;;;;;6146810;23;20025;-82
2023/10/16 15:45:18;;;;;;;3.75;0.95;;;11.90;99.90;;;;;;6147761;23;20020;-82
2023/10/16 15:47:46;;;;;;;2.45;0.73;;;11.80;99.90;;;;;;6122279;23;20044;-82